Time;durP1;ratioP1;P1;durP2;ratioP2;P2;SDS_P1;SDS_P2;PMS_P1;PMS_P2;Temp;Humidity;BMP_temperature;BMP_pressure;BME280_temperature;BME280_humidity;BME280_pressure;Samples;Min_cycle;Max_cycle;Signal;HPM_P1;HPM_P2
2023/03/12 00:01:00;;;;;;;14.60;4.17;;;7.40;99.90;;;;;;5089707;23;20146;-91
2023/03/12 00:03:03;;;;;;;13.97;4.60;;;7.60;99.90;;;;;;5090368;23;20173;-90
2023/03/12 00:05:04;;;;;;;11.80;4.00;;;7.50;99.90;;;;;;5089977;23;20158;-90
2023/03/12 00:07:05;;;;;;;9.33;4.20;;;7.50;99.90;;;;;;5089666;23;20158;-92
2023/03/12 00:09:07;;;;;;;14.53;4.37;;;7.40;99.90;;;;;;5090388;23;20162;-91
2023/03/12 00:11:15;;;;;;;13.47;4.43;;;7.40;99.90;;;;;;5065693;23;20190;-92
2023/03/12 00:13:16;;;;;;;13.07;4.80;;;7.40;99.90;;;;;;5065602;23;20249;-90
2023/03/12 00:15:17;;;;;;;15.00;4.37;;;7.20;99.90;;;;;;5062572;23;20158;-91
2023/03/12 00:17:17;;;;;;;11.80;4.50;;;7.10;99.90;;;;;;5057901;23;20162;-91
2023/03/12 00:19:18;;;;;;;12.00;4.20;;;7.20;99.90;;;;;;5080278;23;20233;-92
2023/03/12 00:21:20;;;;;;;7.77;3.63;;;7.20;99.90;;;;;;5054943;23;20158;-92
2023/03/12 00:23:21;;;;;;;13.23;3.00;;;7.00;99.90;;;;;;5079398;23;20193;-92
2023/03/12 00:25:23;;;;;;;5.73;2.63;;;6.90;99.90;;;;;;5056801;23;20157;-94
2023/03/12 00:27:34;;;;;;;7.30;2.27;;;6.50;99.90;;;;;;5053255;23;20218;-92
2023/03/12 00:29:34;;;;;;;6.03;2.20;;;6.20;99.90;;;;;;5079866;23;20216;-91
2023/03/12 00:31:35;;;;;;;8.67;2.43;;;6.20;99.90;;;;;;5076946;23;20193;-91
2023/03/12 00:33:36;;;;;;;13.20;2.37;;;6.30;99.90;;;;;;5055852;23;20158;-90
2023/03/12 00:35:38;;;;;;;13.23;2.80;;;6.20;99.90;;;;;;5077829;23;20165;-91
2023/03/12 00:37:41;;;;;;;9.27;2.17;;;6.30;99.90;;;;;;5053580;23;20159;-91
2023/03/12 00:39:42;;;;;;;9.60;2.40;;;6.30;99.90;;;;;;5057608;23;20174;-91
2023/03/12 00:41:43;;;;;;;8.40;2.40;;;6.40;99.90;;;;;;5055606;23;20215;-91
2023/03/12 00:44:04;;;;;;;7.57;2.50;;;6.60;99.90;;;;;;5054322;23;20182;-91
2023/03/12 00:46:04;;;;;;;12.70;2.70;;;6.50;99.90;;;;;;5081153;23;20149;-92
2023/03/12 00:48:05;;;;;;;11.30;2.40;;;6.50;99.90;;;;;;5054731;23;20150;-91
2023/03/12 00:50:07;;;;;;;6.50;2.07;;;6.40;99.90;;;;;;5055074;23;20213;-90
2023/03/12 00:52:08;;;;;;;12.17;2.47;;;6.40;99.90;;;;;;5081480;23;20169;-92
2023/03/12 00:54:11;;;;;;;7.13;2.60;;;6.50;99.90;;;;;;5058105;23;20199;-92
2023/03/12 00:56:12;;;;;;;7.77;2.47;;;6.70;99.90;;;;;;5053223;23;20619;-91
2023/03/12 00:58:13;;;;;;;9.33;2.43;;;6.80;99.90;;;;;;5080038;23;20260;-92
2023/03/12 01:00:16;;;;;;;8.60;2.50;;;6.70;99.90;;;;;;5055282;23;20153;-92
2023/03/12 01:02:17;;;;;;;9.93;2.60;;;6.80;99.90;;;;;;5081888;23;20165;-92
2023/03/12 01:04:19;;;;;;;8.47;2.40;;;6.70;99.90;;;;;;5057301;23;20206;-93
2023/03/12 01:06:20;;;;;;;9.87;2.13;;;6.70;99.90;;;;;;5057538;23;20475;-91
2023/03/12 01:08:22;;;;;;;8.73;2.10;;;6.60;99.90;;;;;;5054819;23;20245;-92
2023/03/12 01:10:24;;;;;;;9.37;2.50;;;6.70;99.90;;;;;;5053606;23;20222;-93
2023/03/12 01:12:24;;;;;;;11.40;2.97;;;6.70;99.90;;;;;;5082508;23;20197;-92
2023/03/12 01:14:25;;;;;;;10.20;2.43;;;6.80;99.90;;;;;;5081314;23;20181;-91
2023/03/12 01:16:29;;;;;;;11.20;2.60;;;6.70;99.90;;;;;;5056696;23;20147;-91
2023/03/12 01:18:30;;;;;;;9.07;2.43;;;6.70;99.90;;;;;;5057038;23;20260;-92
2023/03/12 01:20:31;;;;;;;5.33;2.13;;;6.50;99.90;;;;;;5055245;23;20169;-91
2023/03/12 01:22:32;;;;;;;5.30;2.40;;;6.50;99.90;;;;;;5054371;23;20181;-91
2023/03/12 01:24:32;;;;;;;6.17;2.57;;;6.30;99.90;;;;;;5053677;23;20155;-90
2023/03/12 01:26:33;;;;;;;9.27;2.10;;;6.30;99.90;;;;;;5054227;23;20162;-91
2023/03/12 01:28:35;;;;;;;6.27;1.80;;;6.30;99.90;;;;;;5057163;23;20243;-92
2023/03/12 01:30:36;;;;;;;5.33;2.27;;;6.30;99.90;;;;;;5076636;23;20161;-92
2023/03/12 01:32:38;;;;;;;5.80;1.80;;;6.40;99.90;;;;;;5056605;23;20198;-92
2023/03/12 01:34:39;;;;;;;8.77;2.30;;;6.40;99.90;;;;;;5057060;23;20138;-91
2023/03/12 01:36:45;;;;;;;11.67;2.50;;;6.40;99.90;;;;;;5056659;23;20134;-92
2023/03/12 01:38:46;;;;;;;8.07;2.17;;;6.50;99.90;;;;;;5081950;23;20182;-91
2023/03/12 01:40:47;;;;;;;10.20;2.20;;;6.60;99.90;;;;;;5080145;23;20233;-90
2023/03/12 01:42:52;;;;;;;8.37;1.83;;;6.50;99.90;;;;;;5054989;23;20149;-92
2023/03/12 01:44:57;;;;;;;11.87;2.20;;;6.60;99.90;;;;;;5083776;23;20165;-91
2023/03/12 01:46:58;;;;;;;8.07;2.10;;;6.60;99.90;;;;;;5083379;23;20639;-91
2023/03/12 01:49:25;;;;;;;6.33;2.00;;;6.40;99.90;;;;;;5078942;23;20173;-92
2023/03/12 01:51:48;;;;;;;11.63;2.70;;;6.40;99.90;;;;;;5080636;23;20185;-90
2023/03/12 01:53:54;;;;;;;8.47;1.80;;;6.30;99.90;;;;;;5056688;23;20593;-90
2023/03/12 01:55:56;;;;;;;8.23;1.90;;;6.20;99.90;;;;;;5058946;23;20177;-91
2023/03/12 01:57:57;;;;;;;6.53;2.13;;;6.30;99.90;;;;;;5058470;23;20210;-90
2023/03/12 02:00:20;;;;;;;7.73;2.07;;;6.50;99.90;;;;;;5060653;23;20184;-91
2023/03/12 02:02:27;;;;;;;10.73;2.87;;;6.60;99.90;;;;;;5084687;23;20154;-91
2023/03/12 02:04:30;;;;;;;6.93;2.77;;;6.40;99.90;;;;;;5082320;23;20176;-91
2023/03/12 02:06:48;;;;;;;11.73;2.67;;;6.40;99.90;;;;;;5104673;23;20164;-91
2023/03/12 02:08:50;;;;;;;5.60;2.30;;;6.50;99.90;;;;;;5083279;23;20161;-91
2023/03/12 02:10:53;;;;;;;7.03;2.40;;;6.10;99.90;;;;;;5106284;23;20173;-92
2023/03/12 02:13:01;;;;;;;9.97;2.20;;;6.20;99.90;;;;;;5084021;23;20741;-91
2023/03/12 02:15:03;;;;;;;10.40;2.27;;;6.40;99.90;;;;;;5084237;23;20153;-92
2023/03/12 02:17:12;;;;;;;10.40;2.17;;;6.50;99.90;;;;;;5106611;23;20178;-91
2023/03/12 02:19:35;;;;;;;8.87;2.50;;;6.50;99.90;;;;;;5081863;23;20166;-92
2023/03/12 02:21:49;;;;;;;8.97;2.40;;;6.60;99.90;;;;;;5056070;23;20190;-91
2023/03/12 02:24:26;;;;;;;11.10;2.50;;;6.50;99.90;;;;;;5059439;23;20158;-92
2023/03/12 02:26:30;;;;;;;6.77;2.43;;;6.20;99.90;;;;;;5108503;23;20151;-92
2023/03/12 02:28:34;;;;;;;9.33;2.23;;;6.10;99.90;;;;;;5080265;23;20188;-91
2023/03/12 02:30:36;;;;;;;6.67;2.27;;;6.10;99.90;;;;;;5087011;23;20145;-92
2023/03/12 02:32:38;;;;;;;9.93;2.40;;;6.20;99.90;;;;;;5060872;23;20197;-92
2023/03/12 02:34:39;;;;;;;12.53;2.53;;;6.20;99.90;;;;;;5056333;23;20165;-92
2023/03/12 02:36:41;;;;;;;10.33;2.60;;;6.30;99.90;;;;;;5109786;23;20141;-92
2023/03/12 02:38:51;;;;;;;6.17;2.30;;;6.20;99.90;;;;;;5057508;23;20226;-92
2023/03/12 02:41:15;;;;;;;7.47;2.73;;;6.30;99.90;;;;;;5081754;23;20164;-91
2023/03/12 02:43:19;;;;;;;7.00;2.40;;;6.50;99.90;;;;;;5081485;23;20149;-93
2023/03/12 02:45:20;;;;;;;5.80;2.03;;;6.60;99.90;;;;;;5058460;23;20178;-92
2023/03/12 02:47:24;;;;;;;9.67;2.00;;;6.50;99.90;;;;;;5057264;23;20205;-92
2023/03/12 02:49:29;;;;;;;8.87;2.60;;;6.30;99.90;;;;;;5080644;23;20185;-92
2023/03/12 02:51:30;;;;;;;6.40;2.00;;;5.90;99.90;;;;;;5056746;23;20198;-93
2023/03/12 02:53:31;;;;;;;6.83;2.13;;;5.90;99.90;;;;;;5057229;23;20215;-92
2023/03/12 02:55:32;;;;;;;6.80;2.40;;;5.70;99.90;;;;;;5079741;23;20173;-91
2023/03/12 02:57:36;;;;;;;6.93;2.10;;;5.90;99.90;;;;;;5075554;23;20221;-90
2023/03/12 02:59:37;;;;;;;10.20;2.00;;;6.10;99.90;;;;;;5057100;23;20174;-92
2023/03/12 03:01:43;;;;;;;8.37;1.70;;;6.00;99.90;;;;;;5076930;23;20177;-91
2023/03/12 03:03:44;;;;;;;8.87;2.50;;;5.90;99.90;;;;;;5053138;23;20241;-91
2023/03/12 03:05:45;;;;;;;7.93;2.80;;;6.30;99.90;;;;;;5056587;23;20154;-92
2023/03/12 03:07:46;;;;;;;9.50;1.97;;;6.50;99.90;;;;;;5056370;23;20194;-93
2023/03/12 03:09:46;;;;;;;9.83;2.67;;;6.50;99.90;;;;;;5055247;23;20213;-91
2023/03/12 03:11:48;;;;;;;6.27;2.10;;;6.50;99.90;;;;;;5055610;23;20181;-91
2023/03/12 03:13:50;;;;;;;13.07;2.47;;;6.70;99.90;;;;;;5058581;23;20130;-93
2023/03/12 03:15:51;;;;;;;10.13;2.40;;;6.90;99.90;;;;;;5083356;23;20149;-92
2023/03/12 03:17:52;;;;;;;8.97;2.40;;;6.80;99.90;;;;;;5053685;23;20167;-92
2023/03/12 03:20:10;;;;;;;9.43;2.33;;;6.50;99.90;;;;;;5085006;23;20193;-91
2023/03/12 03:22:11;;;;;;;11.70;2.40;;;6.50;99.90;;;;;;5081903;23;20201;-91
2023/03/12 03:24:13;;;;;;;7.03;2.03;;;6.40;99.90;;;;;;5080378;23;20142;-91
2023/03/12 03:26:15;;;;;;;9.17;2.03;;;6.20;99.90;;;;;;5106206;23;20157;-91
2023/03/12 03:28:16;;;;;;;11.37;2.57;;;6.20;99.90;;;;;;5058048;23;20220;-91
2023/03/12 03:30:17;;;;;;;11.20;2.67;;;6.20;99.90;;;;;;5053946;23;20162;-91
2023/03/12 03:32:28;;;;;;;9.27;2.63;;;6.20;99.90;;;;;;5106073;23;20181;-92
2023/03/12 03:34:28;;;;;;;5.80;1.97;;;6.20;99.90;;;;;;5080935;23;20236;-91
2023/03/12 03:36:30;;;;;;;13.50;2.53;;;6.30;99.90;;;;;;5082064;23;20138;-91
2023/03/12 03:38:50;;;;;;;12.37;2.50;;;6.50;99.90;;;;;;5083788;23;20178;-91
2023/03/12 03:40:53;;;;;;;10.60;2.83;;;6.60;99.90;;;;;;5081557;23;20181;-91
2023/03/12 03:42:53;;;;;;;13.07;3.30;;;6.70;99.90;;;;;;5060456;23;20174;-91
2023/03/12 03:44:54;;;;;;;8.87;2.83;;;6.70;99.90;;;;;;5053581;23;20689;-91
2023/03/12 03:46:55;;;;;;;12.53;3.07;;;6.60;99.90;;;;;;5082348;23;20157;-91
2023/03/12 03:48:56;;;;;;;9.40;2.73;;;6.50;99.90;;;;;;5078460;23;20209;-91
2023/03/12 03:51:05;;;;;;;14.07;3.40;;;6.60;99.90;;;;;;5081011;23;20162;-90
2023/03/12 03:53:20;;;;;;;6.73;2.87;;;6.70;99.90;;;;;;5077066;23;20168;-91
2023/03/12 03:55:21;;;;;;;13.60;3.63;;;6.60;99.90;;;;;;5077678;23;20158;-93
2023/03/12 03:57:22;;;;;;;12.23;3.53;;;6.70;99.90;;;;;;5056210;23;20162;-91
2023/03/12 03:59:23;;;;;;;9.13;3.67;;;6.50;99.90;;;;;;5056522;23;20519;-91
2023/03/12 04:01:24;;;;;;;9.60;3.30;;;6.60;99.90;;;;;;5103286;23;20171;-91
2023/03/12 04:03:26;;;;;;;10.07;3.50;;;6.30;99.90;;;;;;5057229;23;20154;-92
2023/03/12 04:05:26;;;;;;;8.80;3.50;;;6.20;99.90;;;;;;5054285;23;20166;-91
2023/03/12 04:07:31;;;;;;;12.57;3.93;;;6.30;99.90;;;;;;5056112;23;20158;-91
2023/03/12 04:09:32;;;;;;;10.37;3.83;;;6.40;99.90;;;;;;5055722;23;20206;-91
2023/03/12 04:11:35;;;;;;;12.20;3.93;;;6.40;99.90;;;;;;5056896;23;20189;-92
2023/03/12 04:13:38;;;;;;;8.37;3.93;;;6.40;99.90;;;;;;5055480;23;20150;-92
2023/03/12 04:15:47;;;;;;;12.30;4.10;;;6.40;99.90;;;;;;5077738;23;20142;-92
2023/03/12 04:17:55;;;;;;;11.63;3.83;;;6.10;99.90;;;;;;5082713;23;20152;-91
2023/03/12 04:19:56;;;;;;;13.90;3.83;;;6.20;99.90;;;;;;5077514;23;20173;-90
2023/03/12 04:21:57;;;;;;;9.03;4.20;;;6.20;99.90;;;;;;5052364;23;20542;-91
2023/03/12 04:23:58;;;;;;;11.50;4.00;;;6.20;99.90;;;;;;5056134;23;20142;-92
2023/03/12 04:26:06;;;;;;;11.80;4.43;;;6.20;99.90;;;;;;5082267;23;20153;-91
2023/03/12 04:28:16;;;;;;;12.37;4.77;;;6.30;99.90;;;;;;5082445;23;20169;-91
2023/03/12 04:30:19;;;;;;;10.80;4.80;;;6.30;99.90;;;;;;5077871;23;20175;-92
2023/03/12 04:32:20;;;;;;;12.20;5.07;;;6.20;99.90;;;;;;5080153;23;20181;-92
2023/03/12 04:34:21;;;;;;;20.50;5.83;;;6.40;99.90;;;;;;5054732;23;20177;-90
2023/03/12 04:36:25;;;;;;;17.97;5.97;;;6.60;99.90;;;;;;5081668;23;20230;-91
2023/03/12 04:38:28;;;;;;;24.20;5.67;;;6.70;99.90;;;;;;5078431;23;20208;-92
2023/03/12 04:40:32;;;;;;;13.90;5.53;;;6.50;99.90;;;;;;5078212;23;20241;-91
2023/03/12 04:42:34;;;;;;;20.17;6.63;;;6.60;99.90;;;;;;5077265;23;20504;-92
2023/03/12 04:44:36;;;;;;;24.67;6.37;;;6.60;99.90;;;;;;5078716;23;20624;-92
2023/03/12 04:46:37;;;;;;;15.97;5.80;;;6.70;99.90;;;;;;5077957;23;20156;-92
2023/03/12 04:48:38;;;;;;;13.80;6.37;;;6.50;99.90;;;;;;5051771;23;20185;-91
2023/03/12 04:50:41;;;;;;;17.03;6.00;;;6.20;99.90;;;;;;5054807;23;20154;-92
2023/03/12 04:52:42;;;;;;;15.03;6.50;;;6.20;99.90;;;;;;5078703;23;20211;-90
2023/03/12 04:54:43;;;;;;;17.10;7.00;;;6.20;99.90;;;;;;5053097;23;20166;-91
2023/03/12 04:56:49;;;;;;;20.57;6.37;;;6.20;99.90;;;;;;5080393;23;20215;-91
2023/03/12 04:58:54;;;;;;;20.00;7.13;;;6.20;99.90;;;;;;5079386;23;20236;-91
2023/03/12 05:00:55;;;;;;;16.03;7.77;;;6.20;99.90;;;;;;5079214;23;20169;-92
2023/03/12 05:02:57;;;;;;;13.30;7.20;;;6.30;99.90;;;;;;5105478;23;20157;-91
2023/03/12 05:04:58;;;;;;;19.97;7.43;;;6.20;99.90;;;;;;5079785;23;20144;-91
2023/03/12 05:06:59;;;;;;;22.37;7.77;;;6.30;99.90;;;;;;5076612;23;20170;-91
2023/03/12 05:09:03;;;;;;;21.37;8.13;;;6.20;99.90;;;;;;5054868;23;20724;-91
2023/03/12 05:11:04;;;;;;;21.97;8.47;;;6.40;99.90;;;;;;5054500;23;20659;-93
2023/03/12 05:13:17;;;;;;;14.17;7.37;;;6.30;99.90;;;;;;5053362;23;20194;-92
2023/03/12 05:15:19;;;;;;;20.43;7.77;;;6.20;99.90;;;;;;5078122;23;20592;-92
2023/03/12 05:17:20;;;;;;;15.47;7.23;;;6.20;99.90;;;;;;5057084;23;20151;-91
2023/03/12 05:19:21;;;;;;;17.27;7.90;;;6.20;99.90;;;;;;5057011;23;20175;-91
2023/03/12 05:21:24;;;;;;;17.50;7.63;;;6.40;99.90;;;;;;5098200;23;20201;-93
2023/03/12 05:23:28;;;;;;;17.57;7.67;;;6.20;99.90;;;;;;5083243;23;20488;-91
2023/03/12 05:25:30;;;;;;;19.90;7.93;;;6.20;99.90;;;;;;5079863;23;20236;-91
2023/03/12 05:27:31;;;;;;;16.43;8.23;;;6.30;99.90;;;;;;5079054;23;20161;-93
2023/03/12 05:29:36;;;;;;;13.33;7.60;;;6.40;99.90;;;;;;5091483;23;20188;-92
2023/03/12 05:31:38;;;;;;;14.77;7.70;;;6.30;99.90;;;;;;5082265;23;20177;-91
2023/03/12 05:33:41;;;;;;;13.07;7.43;;;6.20;99.90;;;;;;5057816;23;20253;-91
2023/03/12 05:35:43;;;;;;;14.97;7.70;;;6.40;99.90;;;;;;5055051;23;20155;-92
2023/03/12 05:37:44;;;;;;;13.70;7.87;;;6.40;99.90;;;;;;5080825;23;20149;-90
2023/03/12 05:39:45;;;;;;;17.37;8.73;;;6.50;99.90;;;;;;5079643;23;20274;-93
2023/03/12 05:41:49;;;;;;;14.33;7.87;;;6.60;99.90;;;;;;5106953;23;20251;-92
2023/03/12 05:43:55;;;;;;;13.70;8.20;;;6.60;99.90;;;;;;5059232;23;20158;-91
2023/03/12 05:46:02;;;;;;;16.70;7.93;;;6.50;99.90;;;;;;5081212;23;20230;-95
2023/03/12 05:48:03;;;;;;;15.17;8.33;;;6.50;99.90;;;;;;5055302;23;20241;-92
2023/03/12 05:50:05;;;;;;;18.20;9.13;;;6.50;99.90;;;;;;5058218;23;20142;-92
2023/03/12 05:52:06;;;;;;;20.43;9.20;;;6.80;99.90;;;;;;5082193;23;20205;-92
2023/03/12 05:54:06;;;;;;;20.47;9.90;;;6.80;99.90;;;;;;5056428;23;20239;-91
2023/03/12 05:56:11;;;;;;;18.73;10.60;;;6.80;99.90;;;;;;5058857;23;20146;-92
2023/03/12 05:58:14;;;;;;;17.53;10.10;;;6.90;99.90;;;;;;5081892;23;20150;-92
2023/03/12 06:00:16;;;;;;;17.97;10.30;;;6.80;99.90;;;;;;5054345;23;20236;-92
2023/03/12 06:02:25;;;;;;;20.43;10.50;;;6.90;99.90;;;;;;5056804;23;20154;-91
2023/03/12 06:04:26;;;;;;;16.10;10.13;;;6.80;99.90;;;;;;5081518;23;20168;-94
2023/03/12 06:06:30;;;;;;;23.33;11.10;;;6.90;99.90;;;;;;5078414;23;20205;-93
2023/03/12 06:08:32;;;;;;;21.17;10.77;;;6.90;99.90;;;;;;5076091;23;20177;-92
2023/03/12 06:10:33;;;;;;;17.30;10.50;;;6.90;99.90;;;;;;5052910;23;20178;-91
2023/03/12 06:12:35;;;;;;;22.37;11.33;;;6.90;99.90;;;;;;5075281;23;20200;-92
2023/03/12 06:14:35;;;;;;;24.47;12.13;;;6.90;99.90;;;;;;5073495;23;20157;-92
2023/03/12 06:16:36;;;;;;;22.33;12.93;;;7.10;99.90;;;;;;5050723;23;20161;-94
2023/03/12 06:18:38;;;;;;;22.50;12.30;;;7.10;99.90;;;;;;5050433;23;20171;-93
2023/03/12 06:20:39;;;;;;;22.17;12.63;;;7.30;99.90;;;;;;5051898;23;20154;-92
2023/03/12 06:22:39;;;;;;;27.43;13.07;;;7.20;99.90;;;;;;5053700;23;20238;-93
2023/03/12 06:24:41;;;;;;;29.00;15.03;;;7.40;99.90;;;;;;5050548;23;20154;-94
2023/03/12 06:26:42;;;;;;;157.13;88.53;;;7.40;99.90;;;;;;5076447;23;20571;-92
2023/03/12 06:28:48;;;;;;;27.80;14.37;;;7.50;99.90;;;;;;5076801;23;20178;-94
2023/03/12 06:30:53;;;;;;;29.97;13.60;;;7.50;99.90;;;;;;5075227;23;20236;-94
2023/03/12 06:32:54;;;;;;;52.43;30.37;;;7.30;99.90;;;;;;5054764;23;20194;-92
2023/03/12 06:34:55;;;;;;;26.13;12.93;;;7.30;99.90;;;;;;5050351;23;20619;-94
2023/03/12 06:36:55;;;;;;;55.17;32.83;;;7.30;99.90;;;;;;5055365;23;20198;-92
2023/03/12 06:38:57;;;;;;;33.37;15.50;;;7.40;99.90;;;;;;5050819;23;20178;-93
2023/03/12 06:41:04;;;;;;;38.40;22.70;;;7.50;99.90;;;;;;5076253;23;20161;-93
2023/03/12 06:43:10;;;;;;;53.17;31.20;;;7.70;99.90;;;;;;5052846;23;20151;-94
2023/03/12 06:45:11;;;;;;;34.40;17.53;;;7.70;99.90;;;;;;5053777;23;20217;-93
2023/03/12 06:47:12;;;;;;;34.73;14.00;;;7.70;99.90;;;;;;5076988;23;20150;-92
2023/03/12 06:49:30;;;;;;;25.70;13.87;;;7.80;99.90;;;;;;5078361;23;20177;-92
2023/03/12 06:51:40;;;;;;;30.50;13.87;;;7.90;99.90;;;;;;5078699;23;20280;-93
2023/03/12 06:53:41;;;;;;;31.50;14.70;;;8.10;99.90;;;;;;5079846;23;20165;-92
2023/03/12 06:55:43;;;;;;;26.10;13.65;;;8.00;99.90;;;;;;5078187;23;20173;-94
2023/03/12 06:57:44;;;;;;;32.07;14.30;;;8.10;99.90;;;;;;5052787;23;20158;-92
2023/03/12 06:59:48;;;;;;;29.20;13.90;;;8.20;99.90;;;;;;5052212;23;20182;-92
2023/03/12 07:01:48;;;;;;;32.60;14.33;;;8.10;99.90;;;;;;5053241;23;20185;-92
2023/03/12 07:03:50;;;;;;;27.80;13.93;;;8.20;99.90;;;;;;5076156;23;20161;-93
2023/03/12 07:05:53;;;;;;;35.70;14.47;;;8.20;99.90;;;;;;5050451;23;20198;-92
2023/03/12 07:07:54;;;;;;;21.57;13.33;;;8.20;99.90;;;;;;5055534;23;20181;-93
2023/03/12 07:09:55;;;;;;;33.65;15.13;;;8.30;99.90;;;;;;5053990;23;20177;-93
2023/03/12 07:11:58;;;;;;;29.47;14.57;;;8.40;99.90;;;;;;5077314;23;20177;-92
2023/03/12 07:13:59;;;;;;;35.53;14.53;;;8.40;99.90;;;;;;5054596;23;20134;-92
2023/03/12 07:16:00;;;;;;;31.13;15.15;;;8.50;99.90;;;;;;5077387;23;20161;-92
2023/03/12 07:18:04;;;;;;;30.87;13.77;;;8.50;99.90;;;;;;5055509;23;20157;-93
2023/03/12 07:20:06;;;;;;;34.95;16.05;;;8.60;99.90;;;;;;5076649;23;20161;-92
2023/03/12 07:22:07;;;;;;;44.50;15.13;;;8.60;99.90;;;;;;5075925;23;20166;-94
2023/03/12 07:24:10;;;;;;;53.05;15.40;;;8.60;99.90;;;;;;5051602;23;20158;-95
2023/03/12 07:26:10;;;;;;;39.35;14.93;;;8.70;99.90;;;;;;5051572;23;20157;-91
2023/03/12 07:28:11;;;;;;;43.70;23.27;;;8.80;99.90;;;;;;5078922;23;20161;-92
2023/03/12 07:30:12;;;;;;;46.30;16.52;;;8.70;99.90;;;;;;5054016;23;20154;-93
2023/03/12 07:32:13;;;;;;;45.72;15.23;;;8.80;99.90;;;;;;5078551;23;20192;-92
2023/03/12 07:34:14;;;;;;;50.85;16.95;;;8.90;99.90;;;;;;5053320;23;20202;-92
2023/03/12 07:36:19;;;;;;;49.15;14.85;;;9.00;99.90;;;;;;5080987;23;20174;-95
2023/03/12 07:38:24;;;;;;;51.38;20.00;;;9.00;99.90;;;;;;5055178;23;20146;-92
2023/03/12 07:40:27;;;;;;;60.67;16.35;;;8.90;99.90;;;;;;5055261;23;20158;-92
2023/03/12 07:42:27;;;;;;;54.05;16.17;;;9.00;99.90;;;;;;5052222;23;20210;-92
2023/03/12 07:44:31;;;;;;;75.05;22.73;;;9.10;99.90;;;;;;5083973;23;20623;-92
2023/03/12 07:46:31;;;;;;;93.50;36.47;;;9.20;99.90;;;;;;5074689;23;20165;-93
2023/03/12 07:48:32;;;;;;;88.75;31.92;;;9.10;99.90;;;;;;5057657;23;20185;-92
2023/03/12 07:50:34;;;;;;;125.07;55.88;;;9.10;99.90;;;;;;5054778;23;20205;-92
2023/03/12 07:52:36;;;;;;;74.03;24.70;;;9.10;99.90;;;;;;5054278;23;20311;-93
2023/03/12 07:54:37;;;;;;;74.60;29.05;;;9.10;99.90;;;;;;5055281;23;20155;-93
2023/03/12 07:56:40;;;;;;;100.35;27.25;;;9.20;99.90;;;;;;5057907;23;20255;-92
2023/03/12 07:58:42;;;;;;;81.68;16.48;;;9.30;99.90;;;;;;5076519;23;20177;-93
2023/03/12 08:00:46;;;;;;;67.88;19.00;;;9.30;99.90;;;;;;5078319;23;20154;-93
2023/03/12 08:02:48;;;;;;;78.85;23.80;;;9.50;99.90;;;;;;5072802;23;20157;-93
2023/03/12 08:04:48;;;;;;;77.97;16.85;;;9.60;99.90;;;;;;5073450;23;20160;-92
2023/03/12 08:06:49;;;;;;;92.85;26.05;;;9.60;99.90;;;;;;5053203;23;20605;-93
2023/03/12 08:08:50;;;;;;;104.18;26.23;;;9.60;99.90;;;;;;5056171;23;20205;-95
2023/03/12 08:10:52;;;;;;;75.60;24.13;;;9.60;99.90;;;;;;5052353;23;20596;-93
2023/03/12 08:12:54;;;;;;;80.95;14.13;;;9.50;99.90;;;;;;5025102;23;20203;-94
2023/03/12 08:14:56;;;;;;;89.20;18.15;;;9.70;99.90;;;;;;5052606;23;20153;-92
2023/03/12 08:17:01;;;;;;;76.70;13.80;;;9.90;99.90;;;;;;5053449;23;20255;-92
2023/03/12 08:19:02;;;;;;;73.15;14.93;;;9.90;99.90;;;;;;5077622;23;20169;-93
2023/03/12 08:21:03;;;;;;;72.35;14.13;;;10.20;99.90;;;;;;5052138;23;20241;-94
2023/03/12 08:23:07;;;;;;;73.95;12.02;;;10.30;99.90;;;;;;5054345;23;20164;-95
2023/03/12 08:25:08;;;;;;;71.72;16.15;;;10.50;99.90;;;;;;5078366;23;20179;-93
2023/03/12 08:27:13;;;;;;;72.57;15.68;;;10.80;99.90;;;;;;5075978;23;20149;-92
2023/03/12 08:29:16;;;;;;;65.82;12.85;;;11.10;99.90;;;;;;5078157;23;20266;-93
2023/03/12 08:31:17;;;;;;;61.08;10.75;;;11.00;99.90;;;;;;5052912;23;20186;-94
2023/03/12 08:33:19;;;;;;;62.92;12.10;;;11.10;99.90;;;;;;5074632;23;20533;-94
2023/03/12 08:35:23;;;;;;;56.35;10.93;;;11.20;99.90;;;;;;5056012;23;20158;-93
2023/03/12 08:37:23;;;;;;;69.65;10.77;;;10.90;99.90;;;;;;5080275;23;20236;-93
2023/03/12 08:39:27;;;;;;;65.28;14.38;;;10.90;99.90;;;;;;5077717;23;20184;-92
2023/03/12 08:41:29;;;;;;;68.85;12.10;;;11.10;99.90;;;;;;5052808;23;20158;-94
2023/03/12 08:43:32;;;;;;;59.00;9.27;;;11.40;99.90;;;;;;5052041;23;20151;-94
2023/03/12 08:45:36;;;;;;;67.57;10.43;;;11.50;99.90;;;;;;5049118;23;20154;-95
2023/03/12 08:47:40;;;;;;;57.47;9.43;;;11.50;99.90;;;;;;5061843;23;20214;-95
2023/03/12 08:49:50;;;;;;;51.15;7.63;;;11.40;99.90;;;;;;5110965;23;20207;-92
2023/03/12 08:52:14;;;;;;;67.90;9.23;;;11.40;99.90;;;;;;5083878;23;20169;-95
2023/03/12 08:54:38;;;;;;;55.95;8.23;;;11.70;99.90;;;;;;5088633;23;20168;-95
2023/03/12 08:56:45;;;;;;;69.20;10.88;;;11.50;99.90;;;;;;5064804;23;20162;-94
2023/03/12 08:59:12;;;;;;;62.33;9.00;;;11.60;99.90;;;;;;5115639;23;20196;-96
2023/03/12 09:01:16;;;;;;;49.28;7.85;;;12.00;99.90;;;;;;5113287;23;20133;-93
2023/03/12 09:03:24;;;;;;;64.47;12.70;;;11.90;99.90;;;;;;5066059;23;20207;-93
2023/03/12 09:05:29;;;;;;;62.85;12.13;;;11.80;99.90;;;;;;5066218;23;20137;-93
2023/03/12 09:07:31;;;;;;;72.10;18.60;;;11.80;99.90;;;;;;5089848;23;20157;-95
2023/03/12 09:09:31;;;;;;;63.17;12.98;;;12.00;99.90;;;;;;5065138;23;21622;-94
2023/03/12 09:11:35;;;;;;;67.28;12.40;;;12.30;99.90;;;;;;5088123;23;20193;-94
2023/03/12 09:13:40;;;;;;;58.00;12.80;;;12.50;99.90;;;;;;5088372;23;20164;-94
2023/03/12 09:15:41;;;;;;;62.25;8.35;;;12.60;99.90;;;;;;5064980;23;20154;-94
2023/03/12 09:17:44;;;;;;;81.90;25.00;;;12.50;99.90;;;;;;5117396;23;20167;-93
2023/03/12 09:19:49;;;;;;;73.57;15.32;;;12.60;99.90;;;;;;5093410;23;20185;-95
2023/03/12 09:21:53;;;;;;;72.80;16.95;;;12.80;99.90;;;;;;5090724;23;20218;-93
2023/03/12 09:24:01;;;;;;;69.53;21.40;;;13.00;99.90;;;;;;5090007;23;20145;-95
2023/03/12 09:26:02;;;;;;;64.82;14.77;;;13.10;99.90;;;;;;5089984;23;20173;-93
2023/03/12 09:28:03;;;;;;;48.88;13.73;;;13.20;99.90;;;;;;5091136;23;20193;-92
2023/03/12 09:30:13;;;;;;;60.33;17.73;;;12.90;99.90;;;;;;5066524;23;20158;-93
2023/03/12 09:32:16;;;;;;;58.83;8.30;;;12.70;99.90;;;;;;5066304;23;20178;-94
2023/03/12 09:34:23;;;;;;;54.28;7.30;;;12.50;99.90;;;;;;5086716;23;20158;-93
2023/03/12 09:36:28;;;;;;;48.30;8.93;;;12.60;99.90;;;;;;5087163;23;20168;-93
2023/03/12 09:38:34;;;;;;;50.63;7.85;;;13.10;99.90;;;;;;5088485;23;20208;-95
2023/03/12 09:40:37;;;;;;;53.17;9.20;;;13.50;99.90;;;;;;5065566;23;20162;-94
2023/03/12 09:43:02;;;;;;;59.60;8.50;;;13.60;99.90;;;;;;5088867;23;20160;-92
2023/03/12 09:45:07;;;;;;;98.38;34.20;;;13.90;99.90;;;;;;5065318;23;20157;-93
2023/03/12 09:47:53;;;;;;;63.47;10.25;;;13.90;99.90;;;;;;5088566;23;20157;-93
2023/03/12 09:50:42;;;;;;;44.70;7.80;;;13.70;99.90;;;;;;5088898;23;20196;-93
2023/03/12 09:53:08;;;;;;;53.72;8.82;;;13.30;99.90;;;;;;5089283;23;20233;-94
2023/03/12 09:55:27;;;;;;;51.35;10.23;;;12.90;99.90;;;;;;5091515;23;20160;-93
2023/03/12 09:57:39;;;;;;;54.42;9.27;;;13.00;99.90;;;;;;5111519;23;20157;-96
2023/03/12 09:59:45;;;;;;;47.60;9.90;;;13.00;99.90;;;;;;5089421;23;20181;-94
2023/03/12 10:02:33;;;;;;;53.67;13.13;;;13.20;99.90;;;;;;5091055;23;20616;-91
2023/03/12 10:05:08;;;;;;;47.60;7.80;;;12.70;99.90;;;;;;5088446;23;20157;-94
2023/03/12 10:07:21;;;;;;;81.85;10.68;;;12.80;99.90;;;;;;5113184;23;20184;-92
2023/03/12 10:09:30;;;;;;;57.08;8.63;;;12.90;99.90;;;;;;5065139;23;20181;-94
2023/03/12 10:11:56;;;;;;;47.60;7.00;;;12.80;99.90;;;;;;5064834;23;20197;-93
2023/03/12 10:14:16;;;;;;;52.17;8.82;;;13.20;99.90;;;;;;5087406;23;20593;-93
2023/03/12 10:16:28;;;;;;;53.85;11.23;;;13.20;99.90;;;;;;5062010;23;20489;-93
2023/03/12 10:18:57;;;;;;;60.15;15.70;;;13.50;99.90;;;;;;5063396;23;20249;-93
2023/03/12 10:21:17;;;;;;;58.20;15.77;;;13.50;99.90;;;;;;5087907;23;20218;-94
2023/03/12 10:23:23;;;;;;;56.60;13.30;;;13.50;99.90;;;;;;5064069;23;20162;-93
2023/03/12 10:25:59;;;;;;;60.20;12.73;;;13.60;99.90;;;;;;5061964;23;20159;-94
2023/03/12 10:28:19;;;;;;;59.58;9.38;;;13.50;99.90;;;;;;5086618;23;20145;-94
2023/03/12 10:30:42;;;;;;;53.65;7.85;;;14.00;99.90;;;;;;5086030;23;20153;-93
2023/03/12 10:33:25;;;;;;;53.67;10.75;;;14.30;99.90;;;;;;5086494;23;20276;-95
2023/03/12 10:35:33;;;;;;;54.92;11.88;;;14.60;99.90;;;;;;5064742;23;20163;-95
2023/03/12 10:37:51;;;;;;;56.00;8.95;;;14.20;99.90;;;;;;5086592;23;20152;-94
2023/03/12 10:39:59;;;;;;;59.40;8.63;;;14.30;99.90;;;;;;5088157;23;20173;-94
2023/03/12 10:42:18;;;;;;;50.45;8.00;;;14.50;99.90;;;;;;5085077;23;20206;-93
2023/03/12 10:44:41;;;;;;;46.10;7.35;;;14.40;99.90;;;;;;5087967;23;20161;-94
2023/03/12 10:47:23;;;;;;;53.47;8.27;;;14.30;99.90;;;;;;5086402;23;20158;-94
2023/03/12 10:49:31;;;;;;;56.03;7.53;;;14.40;99.90;;;;;;5063276;23;20225;-93